Time;durP1;ratioP1;P1;durP2;ratioP2;P2;SDS_P1;SDS_P2;PMS_P1;PMS_P2;Temp;Humidity;BMP_temperature;BMP_pressure;BME280_temperature;BME280_humidity;BME280_pressure;Samples;Min_cycle;Max_cycle;Signal;HPM_P1;HPM_P2
2023/06/21 00:01:56;;;;;;;10.23;6.32;;;22.80;99.90;;;;;;5045577;28;20215;-34
2023/06/21 00:04:23;;;;;;;6.40;5.20;;;22.80;99.90;;;;;;5045564;28;20721;-34
2023/06/21 00:06:53;;;;;;;6.95;5.53;;;22.80;99.90;;;;;;5060286;28;20193;-34
2023/06/21 00:09:22;;;;;;;6.88;5.85;;;22.80;99.90;;;;;;5060124;28;20236;-34
2023/06/21 00:11:50;;;;;;;7.35;6.07;;;22.80;99.90;;;;;;5043303;28;20257;-34
2023/06/21 00:14:20;;;;;;;6.82;6.13;;;22.70;99.90;;;;;;5059837;28;20740;-34
2023/06/21 00:16:47;;;;;;;7.03;5.97;;;22.70;99.90;;;;;;5060344;28;20269;-34
2023/06/21 00:19:16;;;;;;;6.43;5.80;;;22.70;99.90;;;;;;5045268;28;20200;-34
2023/06/21 00:21:46;;;;;;;7.25;6.00;;;22.70;99.90;;;;;;5059275;28;20366;-34
2023/06/21 00:24:13;;;;;;;6.15;5.55;;;22.70;99.90;;;;;;5059857;28;20721;-34
2023/06/21 00:26:40;;;;;;;6.78;6.00;;;22.70;99.90;;;;;;5045397;28;20325;-34
2023/06/21 00:29:08;;;;;;;8.93;6.07;;;22.70;99.90;;;;;;5045307;28;20200;-34
2023/06/21 00:31:35;;;;;;;6.88;6.07;;;22.70;99.90;;;;;;5059957;28;20230;-34
2023/06/21 00:34:04;;;;;;;9.13;5.72;;;22.70;99.90;;;;;;5059914;28;20546;-34
2023/06/21 00:36:36;;;;;;;8.38;6.03;;;22.70;99.90;;;;;;5042428;28;20235;-34
2023/06/21 00:39:06;;;;;;;7.47;6.78;;;22.60;99.90;;;;;;5044622;28;20281;-34
2023/06/21 00:41:34;;;;;;;6.80;6.10;;;22.60;99.90;;;;;;5027314;28;20200;-34
2023/06/21 00:44:03;;;;;;;8.75;6.22;;;22.60;99.90;;;;;;5044876;28;20250;-34
2023/06/21 00:46:31;;;;;;;7.35;6.40;;;22.60;99.90;;;;;;5044669;28;20235;-34
2023/06/21 00:49:01;;;;;;;6.85;5.90;;;22.50;99.90;;;;;;5043590;28;20223;-34
2023/06/21 00:51:32;;;;;;;7.38;6.35;;;22.50;99.90;;;;;;5044918;28;20250;-34
2023/06/21 00:54:00;;;;;;;7.28;6.32;;;22.50;99.90;;;;;;5045538;28;20300;-34
2023/06/21 00:56:29;;;;;;;9.98;6.30;;;22.50;99.90;;;;;;5045265;28;20622;-34
2023/06/21 00:59:04;;;;;;;9.05;6.30;;;22.50;99.90;;;;;;5059584;28;20200;-34
2023/06/21 01:01:34;;;;;;;8.23;7.20;;;22.50;99.90;;;;;;5044791;28;20299;-34
2023/06/21 01:04:02;;;;;;;8.57;6.43;;;22.50;99.90;;;;;;5044777;28;20224;-34
2023/06/21 01:06:57;;;;;;;8.27;6.95;;;22.50;99.90;;;;;;5059312;28;20202;-34
2023/06/21 01:09:31;;;;;;;7.93;6.90;;;22.50;99.90;;;;;;5043040;28;20223;-34
2023/06/21 01:12:19;;;;;;;8.35;6.80;;;22.40;99.90;;;;;;5059098;28;20200;-34
2023/06/21 01:15:14;;;;;;;7.45;6.75;;;22.40;99.90;;;;;;5044512;28;20204;-34
2023/06/21 01:17:47;;;;;;;7.80;6.57;;;22.40;99.90;;;;;;5044533;28;20312;-34
2023/06/21 01:20:24;;;;;;;6.18;5.60;;;22.40;99.90;;;;;;5059467;28;20269;-34
2023/06/21 01:22:59;;;;;;;7.35;6.65;;;22.30;99.90;;;;;;5044486;28;20243;-34
2023/06/21 01:25:46;;;;;;;9.88;7.35;;;22.30;99.90;;;;;;5044341;28;20334;-34
2023/06/21 01:28:31;;;;;;;11.55;7.35;;;22.30;99.90;;;;;;5058726;28;20196;-34
2023/06/21 01:31:01;;;;;;;7.78;6.88;;;22.30;99.90;;;;;;5043875;28;20199;-34
2023/06/21 01:33:31;;;;;;;8.90;6.95;;;22.30;99.90;;;;;;5042587;28;20200;-34
2023/06/21 01:36:03;;;;;;;8.75;6.90;;;22.20;99.90;;;;;;5044401;28;20211;-34
2023/06/21 01:38:30;;;;;;;9.63;7.35;;;22.20;99.90;;;;;;5044350;28;20211;-34
2023/06/21 01:41:01;;;;;;;10.00;7.50;;;22.20;99.90;;;;;;5043610;28;20302;-34
2023/06/21 01:43:34;;;;;;;9.32;7.47;;;22.20;99.90;;;;;;5042421;28;20211;-34
2023/06/21 01:46:02;;;;;;;8.65;6.55;;;22.20;99.90;;;;;;5043800;28;20239;-34
2023/06/21 01:48:34;;;;;;;8.63;6.93;;;22.20;99.90;;;;;;5042391;28;20199;-34
2023/06/21 01:51:06;;;;;;;8.23;7.35;;;22.20;99.90;;;;;;5026012;28;20609;-34
2023/06/21 01:53:34;;;;;;;7.65;6.95;;;22.20;99.90;;;;;;5044198;28;20254;-34
2023/06/21 01:56:09;;;;;;;8.07;7.25;;;22.20;99.90;;;;;;5043949;28;20208;-34
2023/06/21 01:58:41;;;;;;;8.52;6.70;;;22.20;99.90;;;;;;5044307;28;20231;-34
2023/06/21 02:01:13;;;;;;;8.13;6.45;;;22.20;99.90;;;;;;5043926;28;20226;-34
2023/06/21 02:03:48;;;;;;;7.15;6.45;;;22.20;99.90;;;;;;5058716;28;20223;-34
2023/06/21 02:06:20;;;;;;;7.78;6.57;;;22.20;99.90;;;;;;5057993;28;20222;-34
2023/06/21 02:08:51;;;;;;;7.53;6.50;;;22.10;99.90;;;;;;5044199;28;20207;-34
2023/06/21 02:11:23;;;;;;;9.13;6.80;;;22.10;99.90;;;;;;5058265;28;20206;-34
2023/06/21 02:13:52;;;;;;;7.80;6.97;;;22.10;99.90;;;;;;5043487;28;20714;-34
2023/06/21 02:16:29;;;;;;;7.95;7.15;;;22.10;99.90;;;;;;5043411;28;20208;-34
2023/06/21 02:18:56;;;;;;;8.18;7.32;;;22.10;99.90;;;;;;5043645;28;20227;-34
2023/06/21 02:21:29;;;;;;;8.45;7.05;;;22.10;99.90;;;;;;5058023;28;20817;-34
2023/06/21 02:23:59;;;;;;;8.10;7.30;;;22.10;99.90;;;;;;5058250;28;20208;-34
2023/06/21 02:26:29;;;;;;;7.88;6.40;;;22.10;99.90;;;;;;5057922;28;20228;-34
2023/06/21 02:28:58;;;;;;;7.85;6.95;;;22.10;99.90;;;;;;5041385;28;20525;-34
2023/06/21 02:31:28;;;;;;;8.23;7.03;;;22.10;99.90;;;;;;5042952;28;20207;-34
2023/06/21 02:33:55;;;;;;;8.70;7.40;;;22.10;99.90;;;;;;5043107;28;20266;-34
2023/06/21 02:36:22;;;;;;;10.57;7.40;;;22.10;99.90;;;;;;5043472;28;20200;-35
2023/06/21 02:38:52;;;;;;;7.75;6.95;;;22.00;99.90;;;;;;5043116;28;20585;-34
2023/06/21 02:41:21;;;;;;;10.57;7.28;;;22.00;99.90;;;;;;5057967;28;20675;-34
2023/06/21 02:43:51;;;;;;;10.70;7.15;;;22.00;99.90;;;;;;5058229;28;20627;-49
2023/06/21 02:46:18;;;;;;;8.48;6.80;;;22.00;99.90;;;;;;5024897;28;20239;-34
2023/06/21 02:48:46;;;;;;;9.23;6.70;;;22.00;99.90;;;;;;5041311;28;20200;-39
2023/06/21 02:51:15;;;;;;;7.85;7.15;;;22.10;99.90;;;;;;5042664;28;20203;-34
2023/06/21 02:53:47;;;;;;;9.77;7.50;;;22.10;99.90;;;;;;5043163;28;20292;-34
2023/06/21 02:56:15;;;;;;;9.02;7.60;;;22.10;99.90;;;;;;5042693;28;20196;-33
2023/06/21 02:58:42;;;;;;;9.07;7.15;;;22.10;99.90;;;;;;5043157;28;20572;-34
2023/06/21 03:01:13;;;;;;;10.25;6.78;;;22.10;99.90;;;;;;5062104;28;20714;-34
2023/06/21 03:03:44;;;;;;;7.78;6.97;;;22.10;99.90;;;;;;5047258;28;20232;-34
2023/06/21 03:06:13;;;;;;;8.02;6.80;;;22.10;99.90;;;;;;5046685;28;20220;-34
2023/06/21 03:08:43;;;;;;;8.15;7.28;;;22.10;99.90;;;;;;5062279;28;20554;-34
2023/06/21 03:11:14;;;;;;;7.45;6.43;;;22.10;99.90;;;;;;5061889;28;20877;-34
2023/06/21 03:13:41;;;;;;;9.18;6.55;;;22.10;99.90;;;;;;5046625;28;20242;-34
2023/06/21 03:16:08;;;;;;;9.85;7.32;;;22.20;99.90;;;;;;5061745;28;20308;-34
2023/06/21 03:18:38;;;;;;;8.63;7.10;;;22.10;99.90;;;;;;5046984;28;20855;-34
2023/06/21 03:21:05;;;;;;;9.38;7.10;;;22.10;99.90;;;;;;5061172;28;20202;-34
2023/06/21 03:23:35;;;;;;;8.60;7.65;;;22.10;99.90;;;;;;5061786;28;20212;-34
2023/06/21 03:26:07;;;;;;;9.23;7.65;;;22.20;99.90;;;;;;5061480;28;20725;-34
2023/06/21 03:28:34;;;;;;;10.65;8.07;;;22.20;99.90;;;;;;5046523;28;20197;-34
2023/06/21 03:31:03;;;;;;;9.63;7.72;;;22.20;99.90;;;;;;5061249;28;20192;-34
2023/06/21 03:33:33;;;;;;;10.63;8.40;;;22.20;99.90;;;;;;5045341;28;20204;-33
2023/06/21 03:36:06;;;;;;;9.70;8.70;;;22.20;99.90;;;;;;5061647;28;20204;-34
2023/06/21 03:38:36;;;;;;;9.25;7.60;;;22.20;99.90;;;;;;5047061;28;20802;-34
2023/06/21 03:41:08;;;;;;;11.32;8.25;;;22.20;99.90;;;;;;5061084;28;20211;-34
2023/06/21 03:43:38;;;;;;;9.57;7.63;;;22.20;99.90;;;;;;5045055;28;20874;-34
2023/06/21 03:46:10;;;;;;;9.27;7.68;;;22.20;99.90;;;;;;5060776;28;20231;-34
2023/06/21 03:48:37;;;;;;;9.25;7.93;;;22.20;99.90;;;;;;5046696;28;20612;-34
2023/06/21 03:51:04;;;;;;;12.68;7.38;;;22.20;99.90;;;;;;5044483;28;20262;-34
2023/06/21 03:53:31;;;;;;;9.32;7.25;;;22.20;99.90;;;;;;5046185;28;20279;-34
2023/06/21 03:56:01;;;;;;;11.13;8.38;;;22.30;99.90;;;;;;5028776;28;20207;-33
2023/06/21 03:58:33;;;;;;;8.70;7.50;;;22.30;99.90;;;;;;5046330;28;20231;-34
2023/06/21 04:01:03;;;;;;;9.57;8.05;;;22.30;99.90;;;;;;5046111;28;20204;-34
2023/06/21 04:03:33;;;;;;;11.02;8.30;;;22.20;99.90;;;;;;5046216;28;20270;-34
2023/06/21 04:06:06;;;;;;;10.73;7.97;;;22.20;99.90;;;;;;5046398;28;20647;-33
2023/06/21 04:08:38;;;;;;;10.77;8.10;;;22.30;99.90;;;;;;5044307;28;20200;-34
2023/06/21 04:11:06;;;;;;;11.07;7.68;;;22.20;99.90;;;;;;5044652;28;20689;-34
2023/06/21 04:13:33;;;;;;;10.60;8.77;;;22.20;99.90;;;;;;5027915;28;20585;-33
2023/06/21 04:16:00;;;;;;;14.65;8.80;;;22.20;99.90;;;;;;5044159;28;20539;-34
2023/06/21 04:18:27;;;;;;;9.23;7.75;;;22.20;99.90;;;;;;5060336;28;20204;-34
2023/06/21 04:20:54;;;;;;;10.23;9.13;;;22.20;99.90;;;;;;5060284;28;20208;-34
2023/06/21 04:23:22;;;;;;;10.88;8.57;;;22.20;99.90;;;;;;5043624;28;20320;-33
2023/06/21 04:25:56;;;;;;;13.10;7.63;;;22.20;99.90;;;;;;5045141;28;20643;-33
2023/06/21 04:28:26;;;;;;;17.08;9.85;;;22.20;99.90;;;;;;5045438;28;20204;-34
2023/06/21 04:30:55;;;;;;;9.50;8.48;;;22.20;99.90;;;;;;5045056;28;20410;-33
2023/06/21 04:33:22;;;;;;;13.95;8.80;;;22.20;99.90;;;;;;5060670;28;20262;-33
2023/06/21 04:35:52;;;;;;;11.23;8.65;;;22.20;99.90;;;;;;5060399;28;20204;-33
2023/06/21 04:38:19;;;;;;;11.90;8.70;;;22.30;99.90;;;;;;5045069;28;20208;-33
2023/06/21 04:40:52;;;;;;;17.92;9.30;;;22.20;99.90;;;;;;5059244;28;20223;-34
2023/06/21 04:43:21;;;;;;;11.13;9.13;;;22.20;99.90;;;;;;5044975;28;20311;-33
2023/06/21 04:45:48;;;;;;;12.07;10.10;;;22.30;99.90;;;;;;5042807;28;20224;-34
2023/06/21 04:48:18;;;;;;;12.95;10.35;;;22.30;99.90;;;;;;5044739;28;20203;-33
2023/06/21 04:50:46;;;;;;;12.27;9.13;;;22.30;99.90;;;;;;5059837;28;20215;-34
2023/06/21 04:53:18;;;;;;;14.10;9.32;;;22.30;99.90;;;;;;5058985;28;20204;-33
2023/06/21 04:55:48;;;;;;;12.40;9.93;;;22.40;99.90;;;;;;5059508;28;20208;-33
2023/06/21 04:58:15;;;;;;;13.10;10.43;;;22.40;99.90;;;;;;5059558;28;20341;-34
2023/06/21 05:00:43;;;;;;;12.65;10.13;;;22.40;99.90;;;;;;5044033;28;20215;-34
2023/06/21 05:03:14;;;;;;;14.20;10.52;;;22.50;99.90;;;;;;5025981;28;20205;-34
2023/06/21 05:05:42;;;;;;;11.20;10.18;;;22.50;99.90;;;;;;5058986;28;20227;-34
2023/06/21 05:08:12;;;;;;;12.25;10.65;;;22.50;99.90;;;;;;5043063;28;20564;-34
2023/06/21 05:10:39;;;;;;;10.48;9.30;;;22.50;99.90;;;;;;5043903;28;20208;-34
2023/06/21 05:13:09;;;;;;;14.43;10.10;;;22.60;99.90;;;;;;5044320;28;20204;-34
2023/06/21 05:15:38;;;;;;;12.63;10.73;;;22.60;99.90;;;;;;5058878;28;20257;-34
2023/06/21 05:18:08;;;;;;;11.20;10.00;;;22.60;99.90;;;;;;5026070;28;20212;-33
2023/06/21 05:20:38;;;;;;;13.43;9.63;;;22.70;99.90;;;;;;5043763;28;20219;-34
2023/06/21 05:23:07;;;;;;;14.82;10.35;;;22.70;99.90;;;;;;5058668;28;20242;-34
2023/06/21 05:25:35;;;;;;;10.88;9.10;;;22.70;99.90;;;;;;5043561;28;20351;-34
2023/06/21 05:28:02;;;;;;;11.27;9.57;;;22.70;99.90;;;;;;5043779;28;20208;-33
2023/06/21 05:30:31;;;;;;;11.93;9.93;;;22.80;99.90;;;;;;5025292;28;20208;-33
2023/06/21 05:33:00;;;;;;;13.20;9.70;;;22.80;99.90;;;;;;5058345;28;20286;-33
2023/06/21 05:35:30;;;;;;;13.77;9.68;;;22.90;99.90;;;;;;5041712;28;20301;-33
2023/06/21 05:38:02;;;;;;;12.38;9.95;;;22.90;99.90;;;;;;5042153;28;20196;-33
2023/06/21 05:40:29;;;;;;;12.77;9.63;;;22.90;99.90;;;;;;5043819;28;20594;-33
2023/06/21 05:43:01;;;;;;;11.50;9.70;;;22.90;99.90;;;;;;5058287;28;20205;-33
2023/06/21 05:45:29;;;;;;;13.00;9.63;;;23.00;99.90;;;;;;5041690;28;20271;-35
2023/06/21 05:48:00;;;;;;;17.13;10.38;;;23.00;99.90;;;;;;5058406;28;20210;-33
2023/06/21 05:50:30;;;;;;;12.27;9.52;;;23.00;99.90;;;;;;5042843;28;20282;-33
2023/06/21 05:53:00;;;;;;;10.52;9.35;;;23.00;99.90;;;;;;5043053;28;20303;-33
2023/06/21 05:55:27;;;;;;;10.32;9.25;;;23.00;99.90;;;;;;5043275;28;20208;-33
2023/06/21 05:57:57;;;;;;;11.30;8.93;;;23.00;99.90;;;;;;5042645;28;20208;-34
2023/06/21 06:00:30;;;;;;;11.27;9.23;;;23.10;99.90;;;;;;5057182;28;20208;-34
2023/06/21 06:03:01;;;;;;;11.02;8.45;;;23.10;99.90;;;;;;5041463;28;20540;-34
2023/06/21 06:05:29;;;;;;;9.63;7.60;;;23.10;99.90;;;;;;5042189;28;20322;-34
2023/06/21 06:07:59;;;;;;;12.95;10.18;;;23.10;99.90;;;;;;5042508;28;20204;-34
2023/06/21 06:10:26;;;;;;;12.60;9.55;;;23.20;99.90;;;;;;5042247;28;20201;-34
2023/06/21 06:12:56;;;;;;;11.05;9.38;;;23.20;99.90;;;;;;5043262;28;20733;-34
2023/06/21 06:15:26;;;;;;;12.05;9.23;;;23.30;99.90;;;;;;5042901;28;20204;-33
2023/06/21 06:17:55;;;;;;;12.18;8.63;;;23.30;99.90;;;;;;5042346;28;20200;-33
2023/06/21 06:20:22;;;;;;;10.85;9.00;;;23.30;99.90;;;;;;5042518;28;20200;-34
2023/06/21 06:22:50;;;;;;;11.52;9.27;;;23.40;99.90;;;;;;5024596;28;20319;-33
2023/06/21 06:25:18;;;;;;;14.13;8.85;;;23.40;99.90;;;;;;5042746;28;20230;-33
2023/06/21 06:27:51;;;;;;;10.00;9.00;;;23.50;99.90;;;;;;5042554;28;20197;-33
2023/06/21 06:30:18;;;;;;;9.82;8.75;;;23.50;99.90;;;;;;5057144;28;20197;-33
2023/06/21 06:32:45;;;;;;;10.88;8.50;;;23.50;99.90;;;;;;5042309;28;20223;-33
2023/06/21 06:35:16;;;;;;;9.43;8.48;;;23.60;99.90;;;;;;5041850;28;20216;-33
2023/06/21 06:37:45;;;;;;;8.93;8.10;;;23.60;99.90;;;;;;5042187;28;20200;-33
2023/06/21 06:40:13;;;;;;;11.45;8.48;;;23.70;99.90;;;;;;5041927;28;20204;-33
2023/06/21 06:42:40;;;;;;;9.05;7.38;;;23.70;99.90;;;;;;5056802;28;20286;-34
2023/06/21 06:45:10;;;;;;;9.75;8.13;;;23.70;99.90;;;;;;5056960;28;20204;-33
2023/06/21 06:47:45;;;;;;;9.88;7.93;;;23.70;99.90;;;;;;5024720;28;20716;-33
2023/06/21 06:50:15;;;;;;;8.85;7.93;;;23.70;99.90;;;;;;5041837;28;20207;-34
2023/06/21 06:52:48;;;;;;;8.20;7.38;;;23.80;99.90;;;;;;5056773;28;20367;-35
2023/06/21 06:55:20;;;;;;;6.45;5.80;;;23.80;99.90;;;;;;5041854;28;20196;-33
2023/06/21 06:57:47;;;;;;;5.68;5.18;;;23.80;99.90;;;;;;5042299;28;20204;-39
2023/06/21 07:00:34;;;;;;;9.10;5.93;;;23.80;99.90;;;;;;5041773;28;20204;-39
2023/06/21 07:03:01;;;;;;;10.48;6.03;;;23.80;99.90;;;;;;5057284;28;20211;-42
2023/06/21 07:05:35;;;;;;;5.57;4.72;;;23.80;99.90;;;;;;5042068;28;20247;-41
2023/06/21 07:08:04;;;;;;;5.93;4.50;;;23.80;99.90;;;;;;5042234;28;20284;-41
2023/06/21 07:10:34;;;;;;;7.03;4.40;;;23.70;99.90;;;;;;5040163;28;20681;-41
2023/06/21 07:13:02;;;;;;;4.53;4.07;;;23.70;99.90;;;;;;5042201;28;20196;-41
2023/06/21 07:15:29;;;;;;;5.68;3.80;;;23.70;99.90;;;;;;5042055;28;20283;-39
2023/06/21 07:17:59;;;;;;;4.45;3.97;;;23.60;99.90;;;;;;5056822;28;20208;-39
2023/06/21 07:20:31;;;;;;;4.90;3.47;;;23.50;99.90;;;;;;5040216;28;20240;-40
2023/06/21 07:23:00;;;;;;;5.80;4.53;;;23.60;99.90;;;;;;5023820;28;20282;-40
2023/06/21 07:25:27;;;;;;;4.32;3.83;;;23.60;99.90;;;;;;5041493;28;20196;-40
2023/06/21 07:27:57;;;;;;;3.60;3.30;;;23.50;99.90;;;;;;5041464;28;20204;-40
2023/06/21 07:30:24;;;;;;;6.13;3.85;;;23.50;99.90;;;;;;5039689;28;20206;-40
2023/06/21 07:32:54;;;;;;;5.65;3.90;;;23.50;99.90;;;;;;5042082;28;20200;-40
2023/06/21 07:35:22;;;;;;;6.18;3.90;;;23.40;99.90;;;;;;5040051;28;20227;-40
2023/06/21 07:37:51;;;;;;;6.63;4.65;;;23.40;99.90;;;;;;5056509;28;20215;-39
2023/06/21 07:40:19;;;;;;;4.75;3.90;;;23.40;99.90;;;;;;5056707;28;20200;-37
2023/06/21 07:42:46;;;;;;;6.00;3.97;;;23.50;99.90;;;;;;5056416;28;20242;-38
2023/06/21 07:45:18;;;;;;;6.05;4.20;;;23.40;99.90;;;;;;5041364;28;20299;-38
2023/06/21 07:47:50;;;;;;;5.47;3.85;;;23.50;99.90;;;;;;5027247;28;20216;-38
2023/06/21 07:50:19;;;;;;;5.47;3.95;;;23.50;99.90;;;;;;5044749;28;20211;-37
2023/06/21 07:52:49;;;;;;;6.55;4.13;;;23.50;99.90;;;;;;5059837;28;21249;-37
2023/06/21 07:55:19;;;;;;;4.35;3.95;;;23.50;99.90;;;;;;5044941;28;20204;-38
2023/06/21 07:57:48;;;;;;;4.70;4.20;;;23.50;99.90;;;;;;5060206;28;20527;-38
2023/06/21 08:00:19;;;;;;;6.65;4.20;;;23.50;99.90;;;;;;5043608;28;20258;-38
2023/06/21 08:02:49;;;;;;;5.78;4.22;;;23.50;99.90;;;;;;5060004;28;20204;-38
2023/06/21 08:05:22;;;;;;;6.80;4.20;;;23.50;99.90;;;;;;5044916;28;20751;-38
2023/06/21 08:07:51;;;;;;;6.03;4.00;;;23.50;99.90;;;;;;5060530;28;20228;-38
2023/06/21 08:10:20;;;;;;;6.00;4.28;;;23.50;99.90;;;;;;5045266;28;20738;-38
2023/06/21 08:12:55;;;;;;;4.68;4.10;;;23.50;99.90;;;;;;5045048;28;20208;-37
2023/06/21 08:15:23;;;;;;;5.03;4.38;;;23.50;99.90;;;;;;5059846;28;20192;-38
2023/06/21 08:17:54;;;;;;;5.20;4.43;;;23.60;99.90;;;;;;5059836;28;20199;-38
2023/06/21 08:20:24;;;;;;;9.57;4.10;;;23.70;99.90;;;;;;5045187;28;20613;-38
2023/06/21 08:22:51;;;;;;;5.55;3.80;;;23.80;99.90;;;;;;5044674;28;20248;-38
2023/06/21 08:25:18;;;;;;;5.05;4.03;;;23.90;99.90;;;;;;5059579;28;20289;-38
2023/06/21 08:27:48;;;;;;;5.25;3.60;;;23.90;99.90;;;;;;5042995;28;20628;-37
2023/06/21 08:30:15;;;;;;;6.30;4.13;;;23.80;99.90;;;;;;5059563;28;20215;-38
2023/06/21 08:32:47;;;;;;;5.22;3.58;;;23.90;99.90;;;;;;5045152;28;20516;-37
2023/06/21 08:35:19;;;;;;;3.75;3.42;;;23.90;99.90;;;;;;5044653;28;20200;-37
2023/06/21 08:37:55;;;;;;;5.80;3.95;;;23.90;99.90;;;;;;5044339;28;20204;-40
2023/06/21 08:40:25;;;;;;;5.35;4.00;;;23.90;99.90;;;;;;5059351;28;20850;-37
2023/06/21 08:42:58;;;;;;;4.45;4.00;;;23.90;99.90;;;;;;5043276;28;20204;-37
2023/06/21 08:45:28;;;;;;;6.07;3.67;;;23.90;99.90;;;;;;5059417;28;20301;-37
2023/06/21 08:48:03;;;;;;;6.82;3.63;;;23.90;99.90;;;;;;5044777;28;20409;-37
2023/06/21 08:50:33;;;;;;;4.43;3.38;;;23.90;99.90;;;;;;5044381;28;20527;-38
2023/06/21 08:53:05;;;;;;;5.35;3.00;;;24.00;99.90;;;;;;5059441;28;20687;-39
2023/06/21 08:55:36;;;;;;;5.70;3.10;;;24.00;99.90;;;;;;5059370;28;20261;-38
2023/06/21 08:58:14;;;;;;;3.58;3.28;;;24.00;99.90;;;;;;5043663;28;20216;-38
2023/06/21 09:00:50;;;;;;;6.15;3.33;;;24.10;99.90;;;;;;5043984;28;20371;-38
2023/06/21 09:03:46;;;;;;;4.63;3.70;;;24.10;99.90;;;;;;5058789;28;20227;-39
2023/06/21 09:06:22;;;;;;;4.40;3.08;;;24.20;99.90;;;;;;5043400;28;20205;-39
2023/06/21 09:08:53;;;;;;;4.80;3.63;;;24.10;99.90;;;;;;5043974;28;20212;-38
2023/06/21 09:11:26;;;;;;;3.47;3.10;;;24.20;99.90;;;;;;5043169;28;20283;-39
2023/06/21 09:13:57;;;;;;;5.75;3.47;;;24.20;99.90;;;;;;5043433;28;20289;-45
2023/06/21 09:16:26;;;;;;;4.00;2.85;;;24.20;99.90;;;;;;5043247;28;20204;-38
2023/06/21 09:18:56;;;;;;;5.70;3.47;;;24.30;99.90;;;;;;5043457;28;20290;-38
2023/06/21 09:21:30;;;;;;;5.68;3.22;;;24.20;99.90;;;;;;5043131;28;20264;-39
2023/06/21 09:24:00;;;;;;;5.68;3.42;;;24.30;99.90;;;;;;5043927;28;20961;-39
2023/06/21 09:26:32;;;;;;;5.60;3.45;;;24.30;99.90;;;;;;5042174;28;20240;-39
2023/06/21 09:29:01;;;;;;;3.95;3.42;;;24.30;99.90;;;;;;5044243;28;20701;-38
2023/06/21 09:31:28;;;;;;;4.38;2.97;;;24.30;99.90;;;;;;5058500;28;20211;-38
2023/06/21 09:34:00;;;;;;;3.30;2.97;;;24.30;99.90;;;;;;5043168;28;20281;-39
2023/06/21 09:36:30;;;;;;;3.80;3.00;;;24.30;99.90;;;;;;5041315;28;20208;-38
2023/06/21 09:39:08;;;;;;;6.32;3.40;;;24.20;99.90;;;;;;5042790;28;20235;-38
2023/06/21 09:41:35;;;;;;;4.93;3.30;;;24.30;99.90;;;;;;5041126;28;20594;-39
2023/06/21 09:44:03;;;;;;;6.28;3.00;;;24.30;99.90;;;;;;5058195;28;20204;-38
2023/06/21 09:46:30;;;;;;;5.43;3.20;;;24.30;99.90;;;;;;5057290;28;20243;-41
2023/06/21 09:49:10;;;;;;;4.35;3.10;;;24.40;99.90;;;;;;5043104;28;20288;-41
2023/06/21 09:51:46;;;;;;;4.75;3.30;;;24.40;99.90;;;;;;5042700;28;20281;-40
2023/06/21 09:54:15;;;;;;;5.82;3.58;;;24.50;99.90;;;;;;5042683;28;20231;-38
2023/06/21 09:56:45;;;;;;;6.57;3.97;;;24.60;99.90;;;;;;5042828;28;20573;-38
2023/06/21 09:59:22;;;;;;;6.65;3.65;;;24.70;99.90;;;;;;5025751;28;20571;-39
2023/06/21 10:01:54;;;;;;;5.00;3.25;;;24.70;99.90;;;;;;5057791;28;20196;-38
2023/06/21 10:04:24;;;;;;;4.97;3.47;;;24.80;99.90;;;;;;5043104;28;20207;-40
2023/06/21 10:06:55;;;;;;;3.15;2.83;;;24.80;99.90;;;;;;5042908;28;20251;-39
2023/06/21 10:09:22;;;;;;;4.43;3.50;;;24.90;99.90;;;;;;5042787;28;20286;-46
2023/06/21 10:11:54;;;;;;;3.95;3.33;;;25.00;99.90;;;;;;5042674;28;20869;-45
2023/06/21 10:14:23;;;;;;;4.07;3.08;;;25.00;99.90;;;;;;5041172;28;20733;-42
2023/06/21 10:16:56;;;;;;;4.18;3.17;;;25.00;99.90;;;;;;5041301;28;20206;-39
2023/06/21 10:19:29;;;;;;;3.50;3.20;;;25.00;99.90;;;;;;5042501;28;20684;-50
2023/06/21 10:22:14;;;;;;;3.95;3.10;;;25.10;99.90;;;;;;5042355;28;20306;-39
2023/06/21 10:24:50;;;;;;;5.30;3.50;;;25.10;99.90;;;;;;5042384;28;20278;-41
2023/06/21 10:27:20;;;;;;;5.35;3.50;;;25.10;99.90;;;;;;5042406;28;20824;-38
2023/06/21 10:29:57;;;;;;;3.95;3.25;;;25.10;99.90;;;;;;5042339;28;20295;-38
2023/06/21 10:32:27;;;;;;;5.57;3.60;;;25.10;99.90;;;;;;5056674;28;20208;-40
2023/06/21 10:35:12;;;;;;;3.55;2.92;;;25.10;99.90;;;;;;5041999;28;20279;-38
2023/06/21 10:38:11;;;;;;;4.18;3.10;;;25.10;99.90;;;;;;5041969;28;20268;-37
2023/06/21 10:40:40;;;;;;;4.25;3.00;;;25.10;99.90;;;;;;5041726;28;20226;-38
2023/06/21 10:43:08;;;;;;;4.47;2.92;;;25.10;99.90;;;;;;5042227;28;20262;-38
2023/06/21 10:45:36;;;;;;;3.42;2.72;;;25.10;99.90;;;;;;5041803;28;20243;-37
2023/06/21 10:48:09;;;;;;;3.20;2.90;;;25.20;99.90;;;;;;5024348;28;20876;-37
2023/06/21 10:50:43;;;;;;;4.38;3.13;;;25.20;99.90;;;;;;5040167;28;20711;-33
2023/06/21 10:53:13;;;;;;;3.78;3.10;;;25.20;99.90;;;;;;5041519;28;20713;-34
2023/06/21 10:55:41;;;;;;;3.92;2.90;;;25.20;99.90;;;;;;5024507;28;20736;-34
2023/06/21 10:58:10;;;;;;;3.60;3.00;;;25.20;99.90;;;;;;5041770;28;20227;-34
2023/06/21 11:00:38;;;;;;;3.85;2.45;;;25.20;99.90;;;;;;5041832;28;20208;-35
2023/06/21 11:03:05;;;;;;;5.32;3.00;;;25.20;99.90;;;;;;5041968;28;20217;-34
2023/06/21 11:05:35;;;;;;;4.82;2.90;;;25.20;99.90;;;;;;5056622;28;20278;-34
2023/06/21 11:08:04;;;;;;;4.68;2.92;;;25.20;99.90;;;;;;5041963;28;20234;-35
2023/06/21 11:10:49;;;;;;;4.43;2.83;;;25.20;99.90;;;;;;5041598;28;20287;-35
2023/06/21 11:13:39;;;;;;;3.72;2.90;;;25.10;99.90;;;;;;5042222;28;20200;-34
2023/06/21 11:16:33;;;;;;;3.03;2.47;;;25.10;99.90;;;;;;5056235;28;20204;-34
2023/06/21 11:19:08;;;;;;;5.97;2.92;;;25.10;99.90;;;;;;5042271;28;20200;-34
2023/06/21 11:21:40;;;;;;;3.88;2.72;;;25.20;99.90;;;;;;5045222;28;20243;-34
2023/06/21 11:24:12;;;;;;;3.03;2.70;;;25.20;99.90;;;;;;5045918;28;20626;-34
2023/06/21 11:26:55;;;;;;;3.83;2.42;;;25.20;99.90;;;;;;5045255;28;20203;-34
2023/06/21 11:29:27;;;;;;;3.30;2.90;;;25.30;99.90;;;;;;5045814;28;20333;-34
2023/06/21 11:32:09;;;;;;;4.50;2.60;;;25.30;99.90;;;;;;5028242;28;20208;-34
2023/06/21 11:34:37;;;;;;;4.93;2.90;;;25.40;99.90;;;;;;5044716;28;20199;-33
2023/06/21 11:37:36;;;;;;;4.53;3.20;;;25.30;99.90;;;;;;5060710;28;20282;-35
2023/06/21 11:40:05;;;;;;;5.03;2.65;;;25.40;99.90;;;;;;5060413;28;20192;-34
2023/06/21 11:42:52;;;;;;;5.18;2.85;;;25.30;99.90;;;;;;5045200;28;20212;-33
2023/06/21 11:45:19;;;;;;;4.85;3.13;;;25.40;99.90;;;;;;5045217;28;20522;-33
2023/06/21 11:48:12;;;;;;;3.80;2.58;;;25.40;99.90;;;;;;5045355;28;20227;-33
2023/06/21 11:50:45;;;;;;;3.58;2.78;;;25.40;99.90;;;;;;5059296;28;20583;-33
2023/06/21 11:53:21;;;;;;;5.07;2.80;;;25.50;99.90;;;;;;5043412;28;20212;-33
2023/06/21 11:55:56;;;;;;;4.32;2.70;;;25.50;99.90;;;;;;5043699;28;20957;-33
2023/06/21 11:58:28;;;;;;;7.30;2.90;;;25.50;99.90;;;;;;5045128;28;20208;-39
2023/06/21 12:00:58;;;;;;;4.57;2.85;;;25.60;99.90;;;;;;5044729;28;20298;-35
2023/06/21 12:03:25;;;;;;;6.05;2.97;;;25.70;99.90;;;;;;5059791;28;20683;-26
2023/06/21 12:05:58;;;;;;;4.18;2.80;;;25.70;99.90;;;;;;5059807;28;20617;-27
2023/06/21 12:08:28;;;;;;;6.85;2.90;;;25.80;99.90;;;;;;5045543;28;20260;-25
2023/06/21 12:11:02;;;;;;;6.30;2.90;;;25.90;99.90;;;;;;5045546;28;20228;-39
2023/06/21 12:13:33;;;;;;;6.35;3.35;;;26.00;99.90;;;;;;5043992;28;20446;-32
2023/06/21 12:16:11;;;;;;;3.85;2.40;;;26.30;99.90;;;;;;5026864;28;20647;-32
2023/06/21 12:18:46;;;;;;;3.55;3.03;;;26.30;99.90;;;;;;5044805;28;20212;-33
2023/06/21 12:21:14;;;;;;;6.65;3.00;;;26.30;99.90;;;;;;5059595;28;20200;-32
2023/06/21 12:23:42;;;;;;;3.58;2.60;;;26.40;99.90;;;;;;5045119;28;20311;-33
2023/06/21 12:26:17;;;;;;;6.80;2.42;;;26.30;99.90;;;;;;5044312;28;20295;-33
2023/06/21 12:28:46;;;;;;;3.78;2.88;;;26.30;99.90;;;;;;5044620;28;20603;-32
2023/06/21 12:31:17;;;;;;;4.15;2.40;;;26.20;99.90;;;;;;5043616;28;20208;-33
2023/06/21 12:33:56;;;;;;;4.85;2.65;;;26.20;99.90;;;;;;5045358;28;20214;-32
2023/06/21 12:36:26;;;;;;;4.07;2.40;;;26.20;99.90;;;;;;5044496;28;20778;-33
2023/06/21 12:38:56;;;;;;;4.47;2.90;;;26.20;99.90;;;;;;5044697;28;20237;-33
2023/06/21 12:41:26;;;;;;;3.33;2.60;;;26.20;99.90;;;;;;5043803;28;20208;-33
2023/06/21 12:44:03;;;;;;;3.80;2.17;;;26.30;99.90;;;;;;5058762;28;20204;-32
2023/06/21 12:46:43;;;;;;;3.22;2.60;;;26.40;99.90;;;;;;5058882;28;20204;-33
2023/06/21 12:49:14;;;;;;;3.35;2.63;;;26.50;99.90;;;;;;5044371;28;20227;-33
2023/06/21 12:51:45;;;;;;;3.65;2.50;;;26.50;99.90;;;;;;5059365;28;20212;-33
2023/06/21 12:54:20;;;;;;;4.47;2.80;;;26.60;99.90;;;;;;5044540;28;20283;-33
2023/06/21 12:56:50;;;;;;;4.18;2.38;;;26.60;99.90;;;;;;5044716;28;20196;-33
2023/06/21 12:59:22;;;;;;;4.65;2.47;;;26.60;99.90;;;;;;5044752;28;20318;-33
2023/06/21 13:01:55;;;;;;;3.50;2.58;;;26.60;99.90;;;;;;5044547;28;20227;-33
2023/06/21 13:04:23;;;;;;;5.75;2.83;;;26.70;99.90;;;;;;5044783;28;20257;-33